sensor_id;sensor_type;location;lat;lon;timestamp;pressure;altitude;pressure_sealevel;temperature;humidity
35848;BME280;22332;51.954;20.118;2023-06-05T00:00:31;100830.93;;;8.86;50.91
35848;BME280;22332;51.954;20.118;2023-06-05T00:03:56;100832.62;;;8.82;51.02
35848;BME280;22332;51.954;20.118;2023-06-05T00:07:02;100832.19;;;8.79;51.37
35848;BME280;22332;51.954;20.118;2023-06-05T00:10:09;100833.39;;;8.75;51.20
35848;BME280;22332;51.954;20.118;2023-06-05T00:13:15;100833.09;;;8.71;51.32
35848;BME280;22332;51.954;20.118;2023-06-05T00:16:20;100833.89;;;8.67;51.22
35848;BME280;22332;51.954;20.118;2023-06-05T00:19:26;100837.55;;;8.63;51.49
35848;BME280;22332;51.954;20.118;2023-06-05T00:22:32;100834.48;;;8.60;51.60
35848;BME280;22332;51.954;20.118;2023-06-05T00:25:38;100834.61;;;8.54;51.50
35848;BME280;22332;51.954;20.118;2023-06-05T00:28:43;100833.26;;;8.51;51.88
35848;BME280;22332;51.954;20.118;2023-06-05T00:31:50;100835.95;;;8.46;51.62
35848;BME280;22332;51.954;20.118;2023-06-05T00:34:55;100834.78;;;8.43;51.81
35848;BME280;22332;51.954;20.118;2023-06-05T00:38:01;100835.53;;;8.40;52.22
35848;BME280;22332;51.954;20.118;2023-06-05T00:41:06;100835.20;;;8.38;52.17
35848;BME280;22332;51.954;20.118;2023-06-05T00:44:12;100836.27;;;8.35;52.07
35848;BME280;22332;51.954;20.118;2023-06-05T00:47:18;100833.92;;;8.32;52.27
35848;BME280;22332;51.954;20.118;2023-06-05T00:50:24;100834.06;;;8.28;52.46
35848;BME280;22332;51.954;20.118;2023-06-05T00:53:31;100833.80;;;8.24;52.37
35848;BME280;22332;51.954;20.118;2023-06-05T00:56:38;100834.92;;;8.19;52.40
35848;BME280;22332;51.954;20.118;2023-06-05T00:59:45;100830.27;;;8.15;52.55
35848;BME280;22332;51.954;20.118;2023-06-05T01:02:50;100829.42;;;8.10;52.67
35848;BME280;22332;51.954;20.118;2023-06-05T01:05:59;100828.20;;;8.08;52.75
35848;BME280;22332;51.954;20.118;2023-06-05T01:09:07;100826.15;;;8.05;52.65
35848;BME280;22332;51.954;20.118;2023-06-05T01:12:20;100829.08;;;8.01;52.86
35848;BME280;22332;51.954;20.118;2023-06-05T01:15:30;100829.87;;;7.98;52.97
35848;BME280;22332;51.954;20.118;2023-06-05T01:18:39;100825.48;;;7.95;53.16
35848;BME280;22332;51.954;20.118;2023-06-05T01:21:45;100827.27;;;7.93;53.03
35848;BME280;22332;51.954;20.118;2023-06-05T01:24:50;100825.02;;;7.90;53.18
35848;BME280;22332;51.954;20.118;2023-06-05T01:28:00;100823.73;;;7.84;53.01
35848;BME280;22332;51.954;20.118;2023-06-05T01:31:08;100826.27;;;7.81;53.27
35848;BME280;22332;51.954;20.118;2023-06-05T01:34:18;100828.23;;;7.78;53.39
35848;BME280;22332;51.954;20.118;2023-06-05T01:37:26;100828.38;;;7.74;53.54
35848;BME280;22332;51.954;20.118;2023-06-05T01:40:33;100824.92;;;7.71;53.41
35848;BME280;22332;51.954;20.118;2023-06-05T01:43:40;100825.83;;;7.66;53.45
35848;BME280;22332;51.954;20.118;2023-06-05T01:46:47;100822.48;;;7.63;53.66
35848;BME280;22332;51.954;20.118;2023-06-05T01:49:54;100823.94;;;7.61;53.85
35848;BME280;22332;51.954;20.118;2023-06-05T01:53:00;100820.31;;;7.60;53.82
35848;BME280;22332;51.954;20.118;2023-06-05T01:56:06;100816.73;;;7.58;53.54
35848;BME280;22332;51.954;20.118;2023-06-05T01:59:13;100821.51;;;7.56;54.03
35848;BME280;22332;51.954;20.118;2023-06-05T02:02:20;100820.00;;;7.52;54.03
35848;BME280;22332;51.954;20.118;2023-06-05T02:05:26;100821.63;;;7.47;53.81
35848;BME280;22332;51.954;20.118;2023-06-05T02:08:33;100825.09;;;7.45;54.21
35848;BME280;22332;51.954;20.118;2023-06-05T02:11:40;100823.67;;;7.43;54.06
35848;BME280;22332;51.954;20.118;2023-06-05T02:14:49;100826.06;;;7.40;54.11
35848;BME280;22332;51.954;20.118;2023-06-05T02:17:56;100825.29;;;7.39;54.35
35848;BME280;22332;51.954;20.118;2023-06-05T02:21:02;100825.10;;;7.37;54.39
35848;BME280;22332;51.954;20.118;2023-06-05T02:24:08;100827.05;;;7.37;54.41
35848;BME280;22332;51.954;20.118;2023-06-05T02:27:13;100824.49;;;7.35;54.46
35848;BME280;22332;51.954;20.118;2023-06-05T02:30:21;100825.17;;;7.33;54.45
35848;BME280;22332;51.954;20.118;2023-06-05T02:33:28;100819.85;;;7.31;54.24
35848;BME280;22332;51.954;20.118;2023-06-05T02:36:33;100816.75;;;7.30;54.42
35848;BME280;22332;51.954;20.118;2023-06-05T02:39:39;100819.58;;;7.28;54.65
35848;BME280;22332;51.954;20.118;2023-06-05T02:42:45;100819.91;;;7.28;54.60
35848;BME280;22332;51.954;20.118;2023-06-05T02:45:51;100818.66;;;7.28;54.71
35848;BME280;22332;51.954;20.118;2023-06-05T02:48:57;100818.55;;;7.30;54.77
35848;BME280;22332;51.954;20.118;2023-06-05T02:52:04;100816.37;;;7.33;54.84
35848;BME280;22332;51.954;20.118;2023-06-05T02:55:10;100816.50;;;7.36;54.98
35848;BME280;22332;51.954;20.118;2023-06-05T02:58:16;100819.71;;;7.40;54.72
35848;BME280;22332;51.954;20.118;2023-06-05T03:01:28;100821.49;;;7.42;55.02
35848;BME280;22332;51.954;20.118;2023-06-05T03:04:39;100819.10;;;7.45;55.01
35848;BME280;22332;51.954;20.118;2023-06-05T03:07:45;100815.20;;;7.45;55.04
35848;BME280;22332;51.954;20.118;2023-06-05T03:10:50;100813.42;;;7.50;55.19
35848;BME280;22332;51.954;20.118;2023-06-05T03:13:57;100816.48;;;7.61;55.39
35848;BME280;22332;51.954;20.118;2023-06-05T03:17:05;100822.66;;;7.82;55.48
35848;BME280;22332;51.954;20.118;2023-06-05T03:20:12;100826.27;;;8.03;55.46
35848;BME280;22332;51.954;20.118;2023-06-05T03:23:18;100824.86;;;8.29;55.25
35848;BME280;22332;51.954;20.118;2023-06-05T03:26:23;100825.77;;;8.52;55.20
35848;BME280;22332;51.954;20.118;2023-06-05T03:29:30;100827.17;;;8.71;55.36
35848;BME280;22332;51.954;20.118;2023-06-05T03:32:36;100831.36;;;9.02;55.50
35848;BME280;22332;51.954;20.118;2023-06-05T03:35:44;100830.36;;;9.35;55.25
35848;BME280;22332;51.954;20.118;2023-06-05T03:38:50;100830.67;;;9.70;54.99
35848;BME280;22332;51.954;20.118;2023-06-05T03:41:56;100829.32;;;10.02;55.16
35848;BME280;22332;51.954;20.118;2023-06-05T03:45:05;100828.45;;;10.28;55.06
35848;BME280;22332;51.954;20.118;2023-06-05T03:48:11;100823.56;;;10.55;55.14
35848;BME280;22332;51.954;20.118;2023-06-05T03:51:20;100822.90;;;10.84;54.73
35848;BME280;22332;51.954;20.118;2023-06-05T03:54:27;100818.73;;;11.10;54.85
35848;BME280;22332;51.954;20.118;2023-06-05T03:57:37;100820.42;;;11.34;54.61
35848;BME280;22332;51.954;20.118;2023-06-05T04:00:44;100817.31;;;11.52;54.64
35848;BME280;22332;51.954;20.118;2023-06-05T04:03:50;100816.96;;;11.80;54.86
35848;BME280;22332;51.954;20.118;2023-06-05T04:06:57;100817.14;;;12.12;54.81
35848;BME280;22332;51.954;20.118;2023-06-05T04:10:04;100820.56;;;12.37;54.71
35848;BME280;22332;51.954;20.118;2023-06-05T04:13:10;100818.92;;;12.57;54.78
35848;BME280;22332;51.954;20.118;2023-06-05T04:16:16;100816.47;;;12.78;54.85
35848;BME280;22332;51.954;20.118;2023-06-05T04:19:21;100813.27;;;13.03;54.91
35848;BME280;22332;51.954;20.118;2023-06-05T04:22:29;100815.52;;;13.29;54.93
35848;BME280;22332;51.954;20.118;2023-06-05T04:25:35;100814.27;;;13.51;54.70
35848;BME280;22332;51.954;20.118;2023-06-05T04:28:41;100816.14;;;13.75;54.94
35848;BME280;22332;51.954;20.118;2023-06-05T04:31:48;100816.23;;;13.96;54.95
35848;BME280;22332;51.954;20.118;2023-06-05T04:34:54;100817.14;;;14.18;54.95
35848;BME280;22332;51.954;20.118;2023-06-05T04:38:00;100818.13;;;14.41;55.07
35848;BME280;22332;51.954;20.118;2023-06-05T04:41:06;100825.08;;;14.63;55.08
35848;BME280;22332;51.954;20.118;2023-06-05T04:44:12;100824.20;;;14.85;55.19
35848;BME280;22332;51.954;20.118;2023-06-05T04:47:20;100824.32;;;15.07;54.96
35848;BME280;22332;51.954;20.118;2023-06-05T04:50:27;100825.49;;;15.30;55.03
35848;BME280;22332;51.954;20.118;2023-06-05T04:53:43;100823.99;;;15.55;55.27
35848;BME280;22332;51.954;20.118;2023-06-05T04:56:49;100824.95;;;15.76;55.13
35848;BME280;22332;51.954;20.118;2023-06-05T04:59:56;100822.80;;;15.95;55.06
35848;BME280;22332;51.954;20.118;2023-06-05T05:03:03;100822.89;;;16.15;55.03
35848;BME280;22332;51.954;20.118;2023-06-05T05:06:10;100821.77;;;16.31;54.73
35848;BME280;22332;51.954;20.118;2023-06-05T05:09:18;100818.89;;;16.49;54.29
35848;BME280;22332;51.954;20.118;2023-06-05T05:12:25;100817.98;;;16.66;54.00
35848;BME280;22332;51.954;20.118;2023-06-05T05:15:30;100815.58;;;16.82;53.83
35848;BME280;22332;51.954;20.118;2023-06-05T05:18:37;100816.69;;;16.98;53.51
35848;BME280;22332;51.954;20.118;2023-06-05T05:21:45;100809.98;;;17.09;53.45
35848;BME280;22332;51.954;20.118;2023-06-05T05:24:51;100809.42;;;17.24;53.15
35848;BME280;22332;51.954;20.118;2023-06-05T05:27:57;100811.29;;;17.39;53.05
35848;BME280;22332;51.954;20.118;2023-06-05T05:31:03;100812.33;;;17.52;52.69
35848;BME280;22332;51.954;20.118;2023-06-05T05:34:10;100815.67;;;17.66;52.62
35848;BME280;22332;51.954;20.118;2023-06-05T05:37:16;100811.20;;;17.75;52.37
35848;BME280;22332;51.954;20.118;2023-06-05T05:40:22;100813.21;;;17.82;52.30
35848;BME280;22332;51.954;20.118;2023-06-05T05:43:28;100812.33;;;17.93;52.28
35848;BME280;22332;51.954;20.118;2023-06-05T05:46:34;100814.55;;;18.04;52.08
35848;BME280;22332;51.954;20.118;2023-06-05T05:49:40;100817.56;;;18.12;51.55
35848;BME280;22332;51.954;20.118;2023-06-05T05:52:45;100814.30;;;18.14;51.58
35848;BME280;22332;51.954;20.118;2023-06-05T05:55:51;100816.76;;;18.15;51.38
35848;BME280;22332;51.954;20.118;2023-06-05T05:58:58;100817.33;;;18.21;51.38
35848;BME280;22332;51.954;20.118;2023-06-05T06:02:04;100820.24;;;18.28;51.09
35848;BME280;22332;51.954;20.118;2023-06-05T06:05:13;100821.08;;;18.34;50.91
35848;BME280;22332;51.954;20.118;2023-06-05T06:08:19;100821.97;;;18.40;50.62
35848;BME280;22332;51.954;20.118;2023-06-05T06:11:25;100822.15;;;18.45;50.40
35848;BME280;22332;51.954;20.118;2023-06-05T06:14:31;100824.52;;;18.49;50.24
35848;BME280;22332;51.954;20.118;2023-06-05T06:17:37;100821.14;;;18.50;50.19
35848;BME280;22332;51.954;20.118;2023-06-05T06:20:42;100826.88;;;18.53;49.96
35848;BME280;22332;51.954;20.118;2023-06-05T06:23:48;100829.75;;;18.53;49.54
35848;BME280;22332;51.954;20.118;2023-06-05T06:26:54;100829.70;;;18.55;49.63
35848;BME280;22332;51.954;20.118;2023-06-05T06:29:59;100829.71;;;18.56;49.18
35848;BME280;22332;51.954;20.118;2023-06-05T06:33:05;100825.41;;;18.59;49.35
35848;BME280;22332;51.954;20.118;2023-06-05T06:36:11;100829.76;;;18.65;49.35
35848;BME280;22332;51.954;20.118;2023-06-05T06:39:45;100826.30;;;18.69;48.90
35848;BME280;22332;51.954;20.118;2023-06-05T06:42:51;100826.77;;;18.75;48.27
35848;BME280;22332;51.954;20.118;2023-06-05T06:46:26;100829.00;;;18.79;47.84
35848;BME280;22332;51.954;20.118;2023-06-05T06:49:31;100828.52;;;18.83;47.72
35848;BME280;22332;51.954;20.118;2023-06-05T06:52:37;100826.80;;;18.87;47.46
35848;BME280;22332;51.954;20.118;2023-06-05T06:55:43;100826.73;;;18.93;47.42
35848;BME280;22332;51.954;20.118;2023-06-05T06:58:49;100826.98;;;19.01;47.32
35848;BME280;22332;51.954;20.118;2023-06-05T07:02:11;100825.48;;;19.10;47.09
35848;BME280;22332;51.954;20.118;2023-06-05T07:05:18;100831.79;;;19.15;46.79
35848;BME280;22332;51.954;20.118;2023-06-05T07:08:24;100829.34;;;19.20;46.54
35848;BME280;22332;51.954;20.118;2023-06-05T07:11:29;100834.30;;;19.28;46.60
35848;BME280;22332;51.954;20.118;2023-06-05T07:14:35;100831.80;;;19.37;46.89
35848;BME280;22332;51.954;20.118;2023-06-05T07:17:41;100830.81;;;19.45;46.52
35848;BME280;22332;51.954;20.118;2023-06-05T07:20:46;100829.93;;;19.49;45.98
35848;BME280;22332;51.954;20.118;2023-06-05T07:23:52;100832.38;;;19.54;46.02
35848;BME280;22332;51.954;20.118;2023-06-05T07:26:58;100833.08;;;19.59;45.39
35848;BME280;22332;51.954;20.118;2023-06-05T07:30:06;100833.36;;;19.65;45.35
35848;BME280;22332;51.954;20.118;2023-06-05T07:33:12;100832.52;;;19.70;45.36
35848;BME280;22332;51.954;20.118;2023-06-05T07:36:17;100832.67;;;19.77;45.28
35848;BME280;22332;51.954;20.118;2023-06-05T07:39:23;100838.29;;;19.84;44.81
35848;BME280;22332;51.954;20.118;2023-06-05T07:42:29;100835.40;;;19.88;44.51
35848;BME280;22332;51.954;20.118;2023-06-05T07:45:34;100828.73;;;19.95;44.33
35848;BME280;22332;51.954;20.118;2023-06-05T07:48:40;100830.10;;;20.04;44.62
35848;BME280;22332;51.954;20.118;2023-06-05T07:51:46;100831.15;;;20.12;44.12
35848;BME280;22332;51.954;20.118;2023-06-05T07:54:52;100830.95;;;20.17;43.40
35848;BME280;22332;51.954;20.118;2023-06-05T07:57:58;100825.63;;;20.21;43.21
35848;BME280;22332;51.954;20.118;2023-06-05T08:01:05;100820.03;;;20.29;43.15
35848;BME280;22332;51.954;20.118;2023-06-05T08:04:12;100824.65;;;20.38;42.82
35848;BME280;22332;51.954;20.118;2023-06-05T08:07:17;100821.51;;;20.45;42.74
35848;BME280;22332;51.954;20.118;2023-06-05T08:10:23;100820.21;;;20.50;42.50
35848;BME280;22332;51.954;20.118;2023-06-05T08:13:29;100818.73;;;20.55;41.11
35848;BME280;22332;51.954;20.118;2023-06-05T08:16:35;100815.52;;;20.54;41.43
35848;BME280;22332;51.954;20.118;2023-06-05T08:19:41;100814.18;;;20.62;41.43
35848;BME280;22332;51.954;20.118;2023-06-05T08:22:46;100815.30;;;20.68;40.89
35848;BME280;22332;51.954;20.118;2023-06-05T08:25:53;100808.75;;;20.76;41.01
35848;BME280;22332;51.954;20.118;2023-06-05T08:29:00;100811.13;;;20.83;40.70
35848;BME280;22332;51.954;20.118;2023-06-05T08:32:07;100813.73;;;20.88;40.39
35848;BME280;22332;51.954;20.118;2023-06-05T08:35:13;100812.89;;;20.94;40.22
35848;BME280;22332;51.954;20.118;2023-06-05T08:38:18;100808.76;;;20.97;40.14
35848;BME280;22332;51.954;20.118;2023-06-05T08:41:24;100806.05;;;21.00;40.04
35848;BME280;22332;51.954;20.118;2023-06-05T08:44:30;100807.55;;;21.03;39.70
35848;BME280;22332;51.954;20.118;2023-06-05T08:47:38;100808.06;;;21.10;39.88
35848;BME280;22332;51.954;20.118;2023-06-05T08:50:45;100814.10;;;21.16;39.62
35848;BME280;22332;51.954;20.118;2023-06-05T08:53:57;100814.05;;;21.23;39.15
35848;BME280;22332;51.954;20.118;2023-06-05T08:57:06;100809.42;;;21.26;38.82
35848;BME280;22332;51.954;20.118;2023-06-05T09:00:13;100810.34;;;21.26;38.82
35848;BME280;22332;51.954;20.118;2023-06-05T09:03:19;100808.59;;;21.28;38.71
35848;BME280;22332;51.954;20.118;2023-06-05T09:06:25;100809.68;;;21.29;37.76
35848;BME280;22332;51.954;20.118;2023-06-05T09:09:32;100809.30;;;21.32;38.53
35848;BME280;22332;51.954;20.118;2023-06-05T09:12:53;100806.40;;;21.37;38.55
35848;BME280;22332;51.954;20.118;2023-06-05T09:15:59;100803.99;;;21.46;38.45
35848;BME280;22332;51.954;20.118;2023-06-05T09:19:05;100801.73;;;21.56;38.34
35848;BME280;22332;51.954;20.118;2023-06-05T09:22:12;100801.92;;;21.64;38.24
35848;BME280;22332;51.954;20.118;2023-06-05T09:25:18;100801.69;;;21.70;38.11
35848;BME280;22332;51.954;20.118;2023-06-05T09:28:24;100799.72;;;21.75;38.11
35848;BME280;22332;51.954;20.118;2023-06-05T09:31:41;100798.64;;;21.79;37.39
35848;BME280;22332;51.954;20.118;2023-06-05T09:34:55;100790.27;;;21.75;37.22
35848;BME280;22332;51.954;20.118;2023-06-05T09:38:04;100794.87;;;21.75;37.11
35848;BME280;22332;51.954;20.118;2023-06-05T09:41:30;100794.30;;;21.82;37.23
35848;BME280;22332;51.954;20.118;2023-06-05T09:44:59;100794.41;;;21.87;36.81
35848;BME280;22332;51.954;20.118;2023-06-05T09:48:14;100788.04;;;21.83;36.42
35848;BME280;22332;51.954;20.118;2023-06-05T09:51:20;100790.90;;;21.86;36.68
35848;BME280;22332;51.954;20.118;2023-06-05T09:54:27;100791.44;;;21.90;36.70
35848;BME280;22332;51.954;20.118;2023-06-05T09:57:33;100785.59;;;21.89;35.54
35848;BME280;22332;51.954;20.118;2023-06-05T10:00:41;100788.76;;;21.87;36.32
35848;BME280;22332;51.954;20.118;2023-06-05T10:03:50;100788.34;;;21.91;36.15
35848;BME280;22332;51.954;20.118;2023-06-05T10:07:01;100786.02;;;21.94;35.92
35848;BME280;22332;51.954;20.118;2023-06-05T10:10:10;100789.70;;;21.93;35.79
35848;BME280;22332;51.954;20.118;2023-06-05T10:13:16;100783.77;;;21.93;34.99
35848;BME280;22332;51.954;20.118;2023-06-05T10:16:22;100781.48;;;21.90;35.48
35848;BME280;22332;51.954;20.118;2023-06-05T10:19:29;100777.02;;;21.96;35.62
35848;BME280;22332;51.954;20.118;2023-06-05T10:22:36;100770.60;;;22.03;34.41
35848;BME280;22332;51.954;20.118;2023-06-05T10:25:47;100767.02;;;22.00;35.39
35848;BME280;22332;51.954;20.118;2023-06-05T10:29:01;100767.48;;;22.08;35.29
35848;BME280;22332;51.954;20.118;2023-06-05T10:32:21;100764.20;;;22.12;35.04
35848;BME280;22332;51.954;20.118;2023-06-05T10:35:39;100758.52;;;22.18;34.81
35848;BME280;22332;51.954;20.118;2023-06-05T10:38:49;100757.64;;;22.20;34.54
35848;BME280;22332;51.954;20.118;2023-06-05T10:41:55;100760.09;;;22.22;34.66
35848;BME280;22332;51.954;20.118;2023-06-05T10:45:03;100757.59;;;22.26;34.63
35848;BME280;22332;51.954;20.118;2023-06-05T10:48:09;100763.96;;;22.31;34.31
35848;BME280;22332;51.954;20.118;2023-06-05T10:51:32;100754.20;;;22.33;34.51
35848;BME280;22332;51.954;20.118;2023-06-05T10:54:57;100750.52;;;22.39;34.19
35848;BME280;22332;51.954;20.118;2023-06-05T10:58:07;100747.09;;;22.39;34.05
35848;BME280;22332;51.954;20.118;2023-06-05T11:01:21;100747.98;;;22.38;33.82
35848;BME280;22332;51.954;20.118;2023-06-05T11:04:26;100748.80;;;22.42;33.86
35848;BME280;22332;51.954;20.118;2023-06-05T11:08:11;100748.17;;;22.52;33.81
35848;BME280;22332;51.954;20.118;2023-06-05T11:11:17;100748.60;;;22.59;33.59
35848;BME280;22332;51.954;20.118;2023-06-05T11:14:24;100748.65;;;22.63;33.47
35848;BME280;22332;51.954;20.118;2023-06-05T11:17:31;100741.11;;;22.69;33.58
35848;BME280;22332;51.954;20.118;2023-06-05T11:20:52;100745.13;;;22.75;33.23
35848;BME280;22332;51.954;20.118;2023-06-05T11:24:17;100743.23;;;22.76;33.39
35848;BME280;22332;51.954;20.118;2023-06-05T11:27:42;100744.95;;;22.79;33.53
35848;BME280;22332;51.954;20.118;2023-06-05T11:30:48;100741.69;;;22.80;33.26
35848;BME280;22332;51.954;20.118;2023-06-05T11:33:54;100740.77;;;22.79;33.56
35848;BME280;22332;51.954;20.118;2023-06-05T11:37:16;100736.63;;;22.84;33.34
35848;BME280;22332;51.954;20.118;2023-06-05T11:40:26;100739.15;;;22.83;33.34
35848;BME280;22332;51.954;20.118;2023-06-05T11:43:31;100737.45;;;22.85;33.71
35848;BME280;22332;51.954;20.118;2023-06-05T11:46:41;100730.15;;;22.92;33.20
35848;BME280;22332;51.954;20.118;2023-06-05T11:49:47;100728.31;;;22.92;33.00
35848;BME280;22332;51.954;20.118;2023-06-05T11:52:52;100720.90;;;22.92;33.01
35848;BME280;22332;51.954;20.118;2023-06-05T11:56:14;100724.96;;;22.97;33.03
35848;BME280;22332;51.954;20.118;2023-06-05T11:59:22;100724.90;;;23.00;32.97
35848;BME280;22332;51.954;20.118;2023-06-05T12:02:28;100722.13;;;23.03;33.02
35848;BME280;22332;51.954;20.118;2023-06-05T12:05:36;100715.89;;;23.03;32.52
35848;BME280;22332;51.954;20.118;2023-06-05T12:08:43;100710.98;;;23.04;32.94
35848;BME280;22332;51.954;20.118;2023-06-05T12:11:49;100713.46;;;23.12;33.14
35848;BME280;22332;51.954;20.118;2023-06-05T12:14:55;100705.70;;;23.22;32.88
35848;BME280;22332;51.954;20.118;2023-06-05T12:18:01;100706.20;;;23.26;32.48
35848;BME280;22332;51.954;20.118;2023-06-05T12:21:13;100703.90;;;23.29;32.80
35848;BME280;22332;51.954;20.118;2023-06-05T12:24:27;100698.92;;;23.36;32.84
35848;BME280;22332;51.954;20.118;2023-06-05T12:27:32;100701.04;;;23.45;33.02
35848;BME280;22332;51.954;20.118;2023-06-05T12:30:41;100697.02;;;23.49;32.61
35848;BME280;22332;51.954;20.118;2023-06-05T12:33:50;100692.48;;;23.46;32.52
35848;BME280;22332;51.954;20.118;2023-06-05T12:36:55;100692.15;;;23.48;32.57
35848;BME280;22332;51.954;20.118;2023-06-05T12:40:02;100688.30;;;23.50;32.41
35848;BME280;22332;51.954;20.118;2023-06-05T12:43:18;100680.45;;;23.50;32.30
35848;BME280;22332;51.954;20.118;2023-06-05T12:46:24;100679.38;;;23.51;32.40
35848;BME280;22332;51.954;20.118;2023-06-05T12:49:29;100679.08;;;23.55;32.38
35848;BME280;22332;51.954;20.118;2023-06-05T12:52:35;100680.33;;;23.58;32.30
35848;BME280;22332;51.954;20.118;2023-06-05T12:55:41;100677.73;;;23.60;32.44
35848;BME280;22332;51.954;20.118;2023-06-05T12:58:46;100677.52;;;23.63;32.33
35848;BME280;22332;51.954;20.118;2023-06-05T13:01:52;100672.06;;;23.63;32.13
35848;BME280;22332;51.954;20.118;2023-06-05T13:04:58;100668.48;;;23.63;32.16
35848;BME280;22332;51.954;20.118;2023-06-05T13:08:04;100669.65;;;23.62;31.92
35848;BME280;22332;51.954;20.118;2023-06-05T13:11:10;100668.27;;;23.63;31.98
35848;BME280;22332;51.954;20.118;2023-06-05T13:14:16;100667.93;;;23.65;31.69
35848;BME280;22332;51.954;20.118;2023-06-05T13:17:21;100664.83;;;23.66;31.82
35848;BME280;22332;51.954;20.118;2023-06-05T13:20:27;100658.91;;;23.73;31.82
35848;BME280;22332;51.954;20.118;2023-06-05T13:23:33;100654.95;;;23.74;31.65
35848;BME280;22332;51.954;20.118;2023-06-05T13:26:39;100651.73;;;23.70;31.51
35848;BME280;22332;51.954;20.118;2023-06-05T13:29:46;100651.88;;;23.71;31.49
35848;BME280;22332;51.954;20.118;2023-06-05T13:32:51;100648.72;;;23.69;31.36
35848;BME280;22332;51.954;20.118;2023-06-05T13:35:59;100645.66;;;23.63;31.29
35848;BME280;22332;51.954;20.118;2023-06-05T13:39:05;100647.48;;;23.62;31.52
35848;BME280;22332;51.954;20.118;2023-06-05T13:42:10;100646.89;;;23.63;31.38
35848;BME280;22332;51.954;20.118;2023-06-05T13:45:16;100643.02;;;23.63;31.33
35848;BME280;22332;51.954;20.118;2023-06-05T13:48:22;100639.65;;;23.62;31.40
35848;BME280;22332;51.954;20.118;2023-06-05T13:51:28;100638.73;;;23.65;31.17
35848;BME280;22332;51.954;20.118;2023-06-05T13:54:33;100634.54;;;23.65;31.17
35848;BME280;22332;51.954;20.118;2023-06-05T13:57:39;100632.71;;;23.70;31.10
35848;BME280;22332;51.954;20.118;2023-06-05T14:00:45;100629.36;;;23.71;31.07
35848;BME280;22332;51.954;20.118;2023-06-05T14:03:52;100629.48;;;23.73;31.09
35848;BME280;22332;51.954;20.118;2023-06-05T14:06:57;100632.44;;;23.74;31.02
35848;BME280;22332;51.954;20.118;2023-06-05T14:10:03;100624.36;;;23.73;30.93
35848;BME280;22332;51.954;20.118;2023-06-05T14:13:09;100623.71;;;23.71;30.86
35848;BME280;22332;51.954;20.118;2023-06-05T14:16:14;100617.08;;;23.70;30.96
35848;BME280;22332;51.954;20.118;2023-06-05T14:19:20;100615.40;;;23.69;30.72
35848;BME280;22332;51.954;20.118;2023-06-05T14:22:26;100614.38;;;23.67;30.73
35848;BME280;22332;51.954;20.118;2023-06-05T14:25:32;100605.95;;;23.68;31.03
35848;BME280;22332;51.954;20.118;2023-06-05T14:28:38;100609.55;;;23.71;31.20
35848;BME280;22332;51.954;20.118;2023-06-05T14:31:45;100607.35;;;23.73;30.95
35848;BME280;22332;51.954;20.118;2023-06-05T14:34:50;100608.27;;;23.77;31.14
35848;BME280;22332;51.954;20.118;2023-06-05T14:37:56;100607.64;;;23.83;31.01
35848;BME280;22332;51.954;20.118;2023-06-05T14:41:01;100608.05;;;23.88;31.09
35848;BME280;22332;51.954;20.118;2023-06-05T14:44:07;100606.39;;;23.87;30.79
35848;BME280;22332;51.954;20.118;2023-06-05T14:47:13;100604.17;;;23.83;30.81
35848;BME280;22332;51.954;20.118;2023-06-05T14:50:19;100601.77;;;23.81;30.92
35848;BME280;22332;51.954;20.118;2023-06-05T14:53:25;100603.32;;;23.77;30.65
35848;BME280;22332;51.954;20.118;2023-06-05T14:56:31;100598.46;;;23.73;30.65
35848;BME280;22332;51.954;20.118;2023-06-05T14:59:37;100598.55;;;23.70;30.76
35848;BME280;22332;51.954;20.118;2023-06-05T15:02:43;100596.71;;;23.69;30.61
35848;BME280;22332;51.954;20.118;2023-06-05T15:05:49;100596.25;;;23.69;30.58
35848;BME280;22332;51.954;20.118;2023-06-05T15:08:57;100589.84;;;23.71;30.76
35848;BME280;22332;51.954;20.118;2023-06-05T15:12:03;100590.24;;;23.69;30.79
35848;BME280;22332;51.954;20.118;2023-06-05T15:15:10;100585.91;;;23.68;30.64
35848;BME280;22332;51.954;20.118;2023-06-05T15:18:16;100586.89;;;23.64;30.76
35848;BME280;22332;51.954;20.118;2023-06-05T15:21:21;100584.12;;;23.64;30.79
35848;BME280;22332;51.954;20.118;2023-06-05T15:24:27;100584.75;;;23.64;30.53
35848;BME280;22332;51.954;20.118;2023-06-05T15:27:33;100581.55;;;23.60;30.63
35848;BME280;22332;51.954;20.118;2023-06-05T15:30:39;100576.70;;;23.57;30.40
35848;BME280;22332;51.954;20.118;2023-06-05T15:33:45;100571.27;;;23.54;30.34
35848;BME280;22332;51.954;20.118;2023-06-05T15:36:50;100573.84;;;23.53;30.46
35848;BME280;22332;51.954;20.118;2023-06-05T15:39:56;100574.77;;;23.54;30.58
35848;BME280;22332;51.954;20.118;2023-06-05T15:43:08;100574.61;;;23.52;30.38
35848;BME280;22332;51.954;20.118;2023-06-05T15:46:16;100574.56;;;23.47;30.11
35848;BME280;22332;51.954;20.118;2023-06-05T15:49:21;100575.42;;;23.45;30.34
35848;BME280;22332;51.954;20.118;2023-06-05T15:52:27;100573.20;;;23.43;30.19
35848;BME280;22332;51.954;20.118;2023-06-05T15:55:35;100574.02;;;23.42;30.33
35848;BME280;22332;51.954;20.118;2023-06-05T15:58:43;100571.96;;;23.40;29.99
35848;BME280;22332;51.954;20.118;2023-06-05T16:01:48;100570.90;;;23.36;29.92
35848;BME280;22332;51.954;20.118;2023-06-05T16:04:57;100570.12;;;23.34;30.12
35848;BME280;22332;51.954;20.118;2023-06-05T16:08:03;100569.65;;;23.32;30.13
35848;BME280;22332;51.954;20.118;2023-06-05T16:11:08;100567.72;;;23.29;29.99